createdAt,value
2022-09-26T00:00:51.566Z,997.33
2022-09-26T00:01:48.343Z,997.31
2022-09-26T00:02:48.315Z,997.30
2022-09-26T00:03:51.270Z,997.29
2022-09-26T00:04:51.219Z,997.30
2022-09-26T00:06:03.642Z,997.27
2022-09-26T00:06:48.416Z,997.25
2022-09-26T00:07:48.226Z,997.24
2022-09-26T00:08:48.178Z,997.28
2022-09-26T00:09:51.179Z,997.26
2022-09-26T00:10:51.149Z,997.25
2022-09-26T00:12:03.592Z,997.26
2022-09-26T00:12:48.357Z,997.23
2022-09-26T00:13:48.351Z,997.25
2022-09-26T00:14:48.346Z,997.25
2022-09-26T00:15:48.588Z,997.25
2022-09-26T00:16:48.366Z,997.24
2022-09-26T00:17:48.080Z,997.24
2022-09-26T00:18:48.305Z,997.26
2022-09-26T00:19:48.509Z,997.24
2022-09-26T00:20:48.267Z,997.20
2022-09-26T00:21:51.300Z,997.18
2022-09-26T00:22:48.040Z,997.19
2022-09-26T00:23:48.249Z,997.18
2022-09-26T00:24:49.240Z,997.19
2022-09-26T00:25:51.263Z,997.17
2022-09-26T00:26:48.219Z,997.18
2022-09-26T00:27:49.212Z,997.19
2022-09-26T00:28:47.961Z,997.16
2022-09-26T00:29:47.933Z,997.19
2022-09-26T00:30:49.263Z,997.16
2022-09-26T00:31:48.199Z,997.16
2022-09-26T00:32:48.604Z,997.19
2022-09-26T00:33:47.932Z,997.18
2022-09-26T00:34:54.972Z,997.17
2022-09-26T00:35:55.153Z,997.18
2022-09-26T00:36:47.871Z,997.22
2022-09-26T00:37:47.878Z,997.19
2022-09-26T00:38:48.059Z,997.20
2022-09-26T00:39:48.100Z,997.19
2022-09-26T00:40:48.131Z,997.15
2022-09-26T00:41:48.057Z,997.15
2022-09-26T00:42:48.022Z,997.11
2022-09-26T00:43:48.042Z,997.07
2022-09-26T00:44:47.817Z,997.09
2022-09-26T00:45:47.878Z,997.09
2022-09-26T00:46:47.760Z,997.10
2022-09-26T00:47:47.762Z,997.09
2022-09-26T00:48:47.758Z,997.08
2022-09-26T00:49:47.759Z,997.09
2022-09-26T00:50:47.731Z,997.09
2022-09-26T00:51:47.932Z,997.07
2022-09-26T00:52:48.703Z,997.03
2022-09-26T00:53:50.949Z,997.03
2022-09-26T00:54:50.952Z,997.02
2022-09-26T00:55:47.683Z,997.03
2022-09-26T00:56:48.673Z,997.00
2022-09-26T00:57:47.878Z,997.03
2022-09-26T00:58:50.688Z,997.03
2022-09-26T00:59:47.624Z,996.99
2022-09-26T01:00:47.950Z,996.94
2022-09-26T01:01:47.688Z,996.93
2022-09-26T01:02:47.645Z,996.95
2022-09-26T01:03:48.609Z,996.95
2022-09-26T01:04:47.564Z,996.97
2022-09-26T01:05:47.581Z,996.99
2022-09-26T01:06:48.554Z,996.97
2022-09-26T01:07:47.562Z,996.95
2022-09-26T01:08:47.514Z,996.95
2022-09-26T01:09:47.768Z,996.94
2022-09-26T01:10:47.556Z,996.94
2022-09-26T01:11:47.511Z,996.92
2022-09-26T01:12:47.488Z,996.98
2022-09-26T01:13:47.699Z,996.96
2022-09-26T01:14:47.485Z,996.96
2022-09-26T01:15:47.511Z,996.97
2022-09-26T01:16:47.749Z,997.00
2022-09-26T01:17:54.715Z,996.94
2022-09-26T01:18:50.688Z,996.95
2022-09-26T01:20:09.689Z,996.96
2022-09-26T01:20:47.403Z,996.98
2022-09-26T01:21:47.425Z,996.92
2022-09-26T01:23:02.693Z,996.90
2022-09-26T01:23:50.669Z,996.92
2022-09-26T01:24:47.358Z,996.90
2022-09-26T01:25:47.360Z,996.85
2022-09-26T01:26:47.382Z,996.84
2022-09-26T01:27:47.327Z,996.86
2022-09-26T01:28:48.339Z,996.87
2022-09-26T01:29:48.328Z,996.86
2022-09-26T01:30:54.758Z,996.88
2022-09-26T01:31:47.550Z,996.83
2022-09-26T01:33:02.734Z,996.79
2022-09-26T01:33:48.299Z,996.83
2022-09-26T01:34:47.502Z,996.77
2022-09-26T01:35:47.520Z,996.74
2022-09-26T01:36:47.248Z,996.73
2022-09-26T01:37:47.238Z,996.74
2022-09-26T01:38:48.237Z,996.76
2022-09-26T01:39:47.440Z,996.76
2022-09-26T01:40:47.494Z,996.75
2022-09-26T01:41:50.198Z,996.72
2022-09-26T01:42:47.200Z,996.73
2022-09-26T01:43:47.410Z,996.74
2022-09-26T01:44:47.384Z,996.69
2022-09-26T01:45:47.155Z,996.67
2022-09-26T01:46:47.135Z,996.68
2022-09-26T01:47:47.135Z,996.69
2022-09-26T01:48:47.110Z,996.70
2022-09-26T01:49:50.134Z,996.69
2022-09-26T01:50:47.332Z,996.71
2022-09-26T01:51:47.324Z,996.67
2022-09-26T01:52:47.082Z,996.70
2022-09-26T01:53:54.314Z,996.68
2022-09-26T01:54:47.065Z,996.66
2022-09-26T01:55:48.047Z,996.69
2022-09-26T01:56:50.095Z,996.66
2022-09-26T01:57:47.036Z,996.62
2022-09-26T01:58:54.291Z,996.62
2022-09-26T01:59:47.253Z,996.60
2022-09-26T02:01:02.565Z,996.60
2022-09-26T02:01:50.030Z,996.58
2022-09-26T02:02:47.260Z,996.56
2022-09-26T02:03:47.198Z,996.57
2022-09-26T02:04:46.944Z,996.56
2022-09-26T02:05:47.950Z,996.56
2022-09-26T02:06:48.167Z,996.57
2022-09-26T02:07:46.905Z,996.59
2022-09-26T02:08:46.904Z,996.54
2022-09-26T02:09:46.908Z,996.54
2022-09-26T02:10:49.885Z,996.52
2022-09-26T02:11:47.115Z,996.54
2022-09-26T02:12:47.087Z,996.51
2022-09-26T02:13:47.093Z,996.54
2022-09-26T02:14:54.274Z,996.51
2022-09-26T02:15:47.076Z,996.58
2022-09-26T02:16:46.850Z,996.55
2022-09-26T02:17:46.808Z,996.52
2022-09-26T02:18:46.776Z,996.47
2022-09-26T02:19:47.806Z,996.51
2022-09-26T02:20:47.014Z,996.41
2022-09-26T02:21:46.997Z,996.39
2022-09-26T02:22:47.777Z,996.33
2022-09-26T02:23:46.969Z,996.34
2022-09-26T02:24:46.973Z,996.31
2022-09-26T02:25:46.958Z,996.31
2022-09-26T02:26:46.708Z,996.32
2022-09-26T02:27:46.735Z,996.31
2022-09-26T02:28:46.696Z,996.31
2022-09-26T02:29:49.951Z,996.32
2022-09-26T02:30:46.712Z,996.30
2022-09-26T02:31:46.958Z,996.28
2022-09-26T02:32:46.877Z,996.26
2022-09-26T02:33:46.654Z,996.32
2022-09-26T02:34:47.862Z,996.25
2022-09-26T02:35:49.869Z,996.35
2022-09-26T02:36:46.618Z,996.34
2022-09-26T02:37:46.822Z,996.33
2022-09-26T02:38:46.807Z,996.29
2022-09-26T02:39:49.611Z,996.30
2022-09-26T02:40:53.902Z,996.26
2022-09-26T02:41:46.802Z,996.24
2022-09-26T02:42:53.860Z,996.27
2022-09-26T02:43:46.558Z,996.31
2022-09-26T02:44:49.794Z,996.28
2022-09-26T02:45:53.877Z,996.28
2022-09-26T02:46:46.783Z,996.28
2022-09-26T02:48:02.097Z,996.27
2022-09-26T02:48:47.708Z,996.21
2022-09-26T02:49:46.721Z,996.28
2022-09-26T02:50:46.689Z,996.23
2022-09-26T02:51:46.467Z,996.21
2022-09-26T02:52:46.472Z,996.20
2022-09-26T02:53:53.593Z,996.22
2022-09-26T02:54:46.643Z,996.21
2022-09-26T02:55:46.657Z,996.23
2022-09-26T02:56:46.629Z,996.19
2022-09-26T02:57:46.438Z,996.18
2022-09-26T02:58:53.862Z,996.23
2022-09-26T03:00:01.955Z,996.18
2022-09-26T03:00:47.645Z,996.19
2022-09-26T03:01:49.617Z,996.15
2022-09-26T03:02:49.347Z,996.13
2022-09-26T03:03:46.629Z,996.16
2022-09-26T03:04:46.355Z,996.14
2022-09-26T03:05:46.327Z,996.10
2022-09-26T03:06:46.552Z,996.08
2022-09-26T03:07:47.295Z,996.07
2022-09-26T03:08:46.304Z,996.06
2022-09-26T03:09:46.254Z,996.09
2022-09-26T03:10:46.702Z,996.10
2022-09-26T03:11:53.628Z,996.06
2022-09-26T03:12:49.497Z,996.06
2022-09-26T03:13:46.508Z,996.06
2022-09-26T03:14:46.217Z,996.07
2022-09-26T03:15:46.465Z,996.06
2022-09-26T03:17:08.205Z,996.05
2022-09-26T03:17:46.164Z,996.04
2022-09-26T03:18:46.216Z,995.99
2022-09-26T03:19:46.168Z,996.01
2022-09-26T03:20:46.395Z,995.95
2022-09-26T03:21:46.370Z,995.98
2022-09-26T03:22:46.351Z,995.96
2022-09-26T03:23:46.381Z,995.92
2022-09-26T03:24:46.120Z,995.90
2022-09-26T03:25:46.090Z,995.85
2022-09-26T03:26:46.301Z,995.84
2022-09-26T03:27:53.608Z,995.85
2022-09-26T03:28:46.062Z,995.84
2022-09-26T03:29:46.325Z,995.81
2022-09-26T03:30:46.043Z,995.78
2022-09-26T03:31:47.078Z,995.81
2022-09-26T03:32:49.293Z,995.76
2022-09-26T03:33:47.041Z,995.77
2022-09-26T03:34:49.261Z,995.72
2022-09-26T03:35:46.001Z,995.70
2022-09-26T03:36:46.223Z,995.71
2022-09-26T03:37:45.991Z,995.70
2022-09-26T03:38:46.171Z,995.69
2022-09-26T03:39:46.178Z,995.67
2022-09-26T03:40:46.259Z,995.67
2022-09-26T03:41:46.942Z,995.63
2022-09-26T03:42:46.155Z,995.60
2022-09-26T03:43:46.132Z,995.58
2022-09-26T03:44:45.893Z,995.52
2022-09-26T03:45:45.934Z,995.55
2022-09-26T03:47:01.273Z,995.56
2022-09-26T03:47:46.088Z,995.48
2022-09-26T03:49:01.322Z,995.53
2022-09-26T03:49:45.872Z,995.51
2022-09-26T03:50:46.067Z,995.54
2022-09-26T03:52:01.517Z,995.52
2022-09-26T03:53:07.815Z,995.52
2022-09-26T03:53:45.807Z,995.53
2022-09-26T03:54:46.034Z,995.51
2022-09-26T03:55:46.793Z,995.49
2022-09-26T03:56:45.782Z,995.47
2022-09-26T03:57:45.749Z,995.47
2022-09-26T03:58:45.736Z,995.51
2022-09-26T04:00:09.775Z,995.43
2022-09-26T04:00:47.069Z,995.41
2022-09-26T04:01:45.780Z,995.38
2022-09-26T04:02:45.722Z,995.38
2022-09-26T04:03:50.249Z,995.34
2022-09-26T04:04:46.672Z,995.37
2022-09-26T04:05:45.913Z,995.33
2022-09-26T04:06:46.694Z,995.34
2022-09-26T04:07:45.877Z,995.31
2022-09-26T04:08:45.654Z,995.25
2022-09-26T04:09:45.871Z,995.27
2022-09-26T04:10:45.633Z,995.26
2022-09-26T04:11:45.612Z,995.22
2022-09-26T04:12:45.612Z,995.23
2022-09-26T04:13:53.982Z,995.20
2022-09-26T04:14:46.672Z,995.24
2022-09-26T04:15:45.796Z,995.19
2022-09-26T04:16:45.612Z,995.22
2022-09-26T04:17:46.591Z,995.18
2022-09-26T04:18:46.407Z,995.19
2022-09-26T04:19:46.763Z,995.16
2022-09-26T04:20:46.550Z,995.17
2022-09-26T04:21:45.582Z,995.17
2022-09-26T04:22:48.764Z,995.17
2022-09-26T04:23:45.493Z,995.14
2022-09-26T04:24:45.693Z,995.09
2022-09-26T04:25:52.614Z,995.12
2022-09-26T04:26:48.522Z,995.08
2022-09-26T04:27:45.678Z,995.10
2022-09-26T04:28:52.880Z,995.10
2022-09-26T04:29:45.637Z,995.05
2022-09-26T04:30:48.465Z,995.06
2022-09-26T04:31:48.479Z,995.03
2022-09-26T04:32:45.402Z,995.04
2022-09-26T04:33:46.377Z,995.02
2022-09-26T04:34:47.073Z,995.03
2022-09-26T04:35:48.618Z,995.05
2022-09-26T04:36:45.330Z,995.01
2022-09-26T04:37:45.589Z,995.02
2022-09-26T04:38:48.619Z,995.00
2022-09-26T04:39:46.574Z,994.98
2022-09-26T04:40:45.393Z,994.98
2022-09-26T04:41:46.305Z,994.99
2022-09-26T04:42:48.307Z,994.94
2022-09-26T04:43:45.537Z,994.94
2022-09-26T04:44:45.260Z,994.94
2022-09-26T04:45:45.519Z,994.91
2022-09-26T04:46:48.268Z,994.93
2022-09-26T04:48:00.712Z,994.93
2022-09-26T04:48:45.444Z,994.93
2022-09-26T04:49:45.208Z,994.91
2022-09-26T04:50:45.255Z,994.89
2022-09-26T04:51:45.428Z,994.81
2022-09-26T04:52:45.175Z,994.81
2022-09-26T04:53:45.405Z,994.83
2022-09-26T04:54:45.194Z,994.79
2022-09-26T04:55:46.164Z,994.81
2022-09-26T04:56:45.428Z,994.80
2022-09-26T04:57:45.113Z,994.81
2022-09-26T04:58:45.153Z,994.78
2022-09-26T04:59:48.380Z,994.76
2022-09-26T05:00:45.136Z,994.77
2022-09-26T05:01:45.122Z,994.83
2022-09-26T05:03:00.553Z,994.80
2022-09-26T05:03:45.098Z,994.75
2022-09-26T05:04:45.074Z,994.75
2022-09-26T05:05:48.112Z,994.76
2022-09-26T05:06:45.021Z,994.73
2022-09-26T05:07:45.266Z,994.70
2022-09-26T05:08:52.331Z,994.71
2022-09-26T05:09:45.212Z,994.71
2022-09-26T05:10:44.985Z,994.70
2022-09-26T05:11:46.216Z,994.72
2022-09-26T05:12:45.215Z,994.73
2022-09-26T05:13:45.325Z,994.73
2022-09-26T05:14:45.015Z,994.74
2022-09-26T05:15:45.165Z,994.72
2022-09-26T05:16:45.268Z,994.70
2022-09-26T05:17:44.900Z,994.74
2022-09-26T05:18:44.925Z,994.73
2022-09-26T05:19:44.917Z,994.71
2022-09-26T05:20:45.921Z,994.67
2022-09-26T05:21:52.048Z,994.70
2022-09-26T05:22:44.874Z,994.69
2022-09-26T05:23:45.582Z,994.63
2022-09-26T05:24:45.133Z,994.64
2022-09-26T05:25:47.867Z,994.62
2022-09-26T05:26:46.084Z,994.54
2022-09-26T05:27:52.224Z,994.50
2022-09-26T05:28:44.798Z,994.50
2022-09-26T05:29:44.815Z,994.52
2022-09-26T05:30:44.785Z,994.52
2022-09-26T05:31:45.869Z,994.56
2022-09-26T05:32:52.027Z,994.54
2022-09-26T05:33:47.744Z,994.57
2022-09-26T05:34:44.759Z,994.58
2022-09-26T05:36:00.198Z,994.60
2022-09-26T05:36:44.952Z,994.61
2022-09-26T05:37:45.748Z,994.55
2022-09-26T05:38:44.936Z,994.63
2022-09-26T05:39:44.984Z,994.61
2022-09-26T05:40:44.726Z,994.58
2022-09-26T05:41:44.655Z,994.55
2022-09-26T05:42:47.689Z,994.58
2022-09-26T05:43:47.671Z,994.51
2022-09-26T05:44:45.872Z,994.55
2022-09-26T05:45:44.634Z,994.59
2022-09-26T05:46:45.912Z,994.53
2022-09-26T05:47:47.636Z,994.47
2022-09-26T05:48:44.589Z,994.45
2022-09-26T05:49:44.581Z,994.43
2022-09-26T05:50:44.590Z,994.42
2022-09-26T05:51:45.821Z,994.40
2022-09-26T05:52:51.850Z,994.41
2022-09-26T05:53:44.540Z,994.42
2022-09-26T05:54:44.531Z,994.44
2022-09-26T05:55:44.527Z,994.44
2022-09-26T05:56:51.986Z,994.44
2022-09-26T05:57:51.650Z,994.43
2022-09-26T05:58:45.504Z,994.38
2022-09-26T05:59:44.703Z,994.40
2022-09-26T06:00:44.525Z,994.36
2022-09-26T06:01:44.707Z,994.31
2022-09-26T06:03:05.465Z,994.31
2022-09-26T06:03:45.692Z,994.36
2022-09-26T06:04:44.639Z,994.35
2022-09-26T06:05:44.441Z,994.33
2022-09-26T06:06:44.396Z,994.30
2022-09-26T06:07:44.384Z,994.33
2022-09-26T06:08:45.398Z,994.32
2022-09-26T06:09:45.392Z,994.31
2022-09-26T06:10:47.417Z,994.30
2022-09-26T06:11:44.593Z,994.31
2022-09-26T06:12:51.703Z,994.29
2022-09-26T06:13:47.385Z,994.28
2022-09-26T06:14:47.377Z,994.27
2022-09-26T06:15:44.537Z,994.28
2022-09-26T06:16:44.355Z,994.25
2022-09-26T06:17:44.292Z,994.23
2022-09-26T06:18:45.301Z,994.25
2022-09-26T06:19:44.270Z,994.23
2022-09-26T06:20:51.470Z,994.19
2022-09-26T06:21:44.492Z,994.20
2022-09-26T06:22:44.506Z,994.23
2022-09-26T06:23:44.227Z,994.20
2022-09-26T06:24:44.671Z,994.15
2022-09-26T06:25:44.299Z,994.19
2022-09-26T06:26:44.182Z,994.18
2022-09-26T06:27:44.473Z,994.14
2022-09-26T06:28:51.501Z,994.15
2022-09-26T06:29:44.176Z,994.15
2022-09-26T06:30:44.153Z,994.11
2022-09-26T06:31:44.222Z,994.15
2022-09-26T06:32:44.424Z,994.11
2022-09-26T06:33:44.366Z,994.09
2022-09-26T06:34:45.113Z,994.11
2022-09-26T06:35:44.387Z,994.11
2022-09-26T06:36:44.108Z,994.10
2022-09-26T06:37:45.106Z,994.08
2022-09-26T06:38:44.318Z,994.06
2022-09-26T06:40:06.070Z,994.04
2022-09-26T06:40:44.313Z,994.02
2022-09-26T06:41:44.036Z,994.02
2022-09-26T06:42:44.269Z,994.03
2022-09-26T06:43:44.028Z,994.03
2022-09-26T06:44:44.285Z,994.00
2022-09-26T06:45:43.999Z,994.03
2022-09-26T06:46:51.536Z,994.01
2022-09-26T06:47:43.986Z,993.94
2022-09-26T06:48:43.975Z,993.93
2022-09-26T06:49:44.195Z,993.90
2022-09-26T06:50:45.199Z,993.86
2022-09-26T06:51:43.933Z,993.88
2022-09-26T06:52:44.197Z,993.87
2022-09-26T06:53:45.569Z,993.84
2022-09-26T06:54:43.895Z,993.84
2022-09-26T06:55:43.917Z,993.79
2022-09-26T06:56:43.949Z,993.80
2022-09-26T06:57:44.131Z,993.78
2022-09-26T06:58:46.937Z,993.78
2022-09-26T06:59:44.077Z,993.79
2022-09-26T07:00:51.015Z,993.76
2022-09-26T07:01:47.273Z,993.78
2022-09-26T07:02:47.129Z,993.80
2022-09-26T07:03:45.864Z,993.78
2022-09-26T07:04:43.802Z,993.74
2022-09-26T07:05:43.788Z,993.74
2022-09-26T07:06:46.857Z,993.76
2022-09-26T07:07:44.989Z,993.78
2022-09-26T07:09:01.658Z,993.71
2022-09-26T07:09:47.769Z,993.72
2022-09-26T07:10:43.728Z,993.76
2022-09-26T07:12:09.903Z,993.76
2022-09-26T07:12:44.926Z,993.73
2022-09-26T07:13:43.709Z,993.75
2022-09-26T07:14:51.397Z,993.76
2022-09-26T07:15:44.690Z,993.77
2022-09-26T07:16:43.672Z,993.74
2022-09-26T07:17:59.230Z,993.72
2022-09-26T07:18:43.655Z,993.74
2022-09-26T07:19:43.891Z,993.69
2022-09-26T07:20:44.684Z,993.64
2022-09-26T07:21:43.625Z,993.69
2022-09-26T07:22:43.884Z,993.66
2022-09-26T07:23:43.857Z,993.71
2022-09-26T07:24:43.900Z,993.69
2022-09-26T07:26:04.587Z,993.69
2022-09-26T07:26:44.825Z,993.70
2022-09-26T07:27:43.774Z,993.65
2022-09-26T07:28:43.592Z,993.67
2022-09-26T07:29:43.568Z,993.59
2022-09-26T07:30:43.734Z,993.56
2022-09-26T07:31:59.201Z,993.55
2022-09-26T07:32:44.515Z,993.53
2022-09-26T07:33:50.795Z,993.55
2022-09-26T07:34:43.533Z,993.56
2022-09-26T07:35:44.732Z,993.56
2022-09-26T07:36:43.671Z,993.49
2022-09-26T07:37:43.441Z,993.55
2022-09-26T07:38:43.424Z,993.50
2022-09-26T07:39:50.054Z,993.49
2022-09-26T07:40:44.525Z,993.47
2022-09-26T07:41:43.421Z,993.45
2022-09-26T07:43:04.033Z,993.42
2022-09-26T07:45:45.606Z,993.46
2022-09-26T07:46:43.720Z,993.46
2022-09-26T07:47:43.349Z,993.45
2022-09-26T07:48:44.593Z,993.47
2022-09-26T07:49:43.331Z,993.45
2022-09-26T07:50:44.351Z,993.43
2022-09-26T07:51:43.342Z,993.47
2022-09-26T07:52:43.275Z,993.43
2022-09-26T07:53:43.317Z,993.46
2022-09-26T07:54:43.519Z,993.47
2022-09-26T07:55:43.483Z,993.41
2022-09-26T07:56:43.259Z,993.40
2022-09-26T07:57:43.258Z,993.43
2022-09-26T07:58:46.271Z,993.42
2022-09-26T07:59:43.214Z,993.39
2022-09-26T08:00:44.224Z,993.40
2022-09-26T08:01:43.438Z,993.38
2022-09-26T08:02:43.530Z,993.38
2022-09-26T08:03:43.179Z,993.37
2022-09-26T08:04:43.144Z,993.43
2022-09-26T08:05:44.170Z,993.42
2022-09-26T08:06:43.377Z,993.38
2022-09-26T08:07:46.144Z,993.39
2022-09-26T08:08:58.431Z,993.39
2022-09-26T08:09:43.316Z,993.39
2022-09-26T08:10:44.106Z,993.40
2022-09-26T08:11:43.366Z,993.38
2022-09-26T08:12:44.099Z,993.35
2022-09-26T08:13:50.476Z,993.33
2022-09-26T08:14:43.076Z,993.34
2022-09-26T08:15:43.086Z,993.34
2022-09-26T08:16:43.076Z,993.32
2022-09-26T08:17:43.025Z,993.33
2022-09-26T08:18:43.253Z,993.32
2022-09-26T08:19:58.355Z,993.30
2022-09-26T08:20:43.226Z,993.34
2022-09-26T08:21:43.241Z,993.27
2022-09-26T08:22:43.223Z,993.32
2022-09-26T08:23:44.216Z,993.31
2022-09-26T08:24:42.950Z,993.29
2022-09-26T08:25:50.330Z,993.24
2022-09-26T08:26:44.587Z,993.30
2022-09-26T08:27:42.916Z,993.31
2022-09-26T08:28:43.250Z,993.26
2022-09-26T08:29:43.021Z,993.29
2022-09-26T08:30:42.898Z,993.27
2022-09-26T08:31:42.945Z,993.30
2022-09-26T08:32:42.911Z,993.23
2022-09-26T08:33:42.875Z,993.27
2022-09-26T08:34:43.857Z,993.29
2022-09-26T08:35:43.051Z,993.26
2022-09-26T08:36:50.058Z,993.26
2022-09-26T08:37:42.867Z,993.24
2022-09-26T08:38:42.853Z,993.27
2022-09-26T08:39:42.787Z,993.22
2022-09-26T08:40:42.855Z,993.24
2022-09-26T08:41:42.775Z,993.15
2022-09-26T08:42:42.801Z,993.18
2022-09-26T08:43:42.808Z,993.19
2022-09-26T08:44:42.764Z,993.17
2022-09-26T08:45:47.291Z,993.18
2022-09-26T08:46:43.801Z,993.16
2022-09-26T08:47:42.731Z,993.15
2022-09-26T08:48:42.708Z,993.16
2022-09-26T08:49:42.684Z,993.19
2022-09-26T08:50:42.719Z,993.14
2022-09-26T08:51:42.670Z,993.07
2022-09-26T08:52:42.653Z,993.07
2022-09-26T08:53:42.648Z,993.05
2022-09-26T08:54:42.653Z,993.04
2022-09-26T08:55:42.641Z,993.05
2022-09-26T08:56:42.617Z,993.03
2022-09-26T08:57:42.596Z,993.10
2022-09-26T08:58:42.591Z,993.00
2022-09-26T08:59:42.626Z,993.01
2022-09-26T09:00:42.587Z,992.99
2022-09-26T09:01:42.744Z,993.03
2022-09-26T09:02:42.650Z,993.00
2022-09-26T09:03:42.533Z,992.95
2022-09-26T09:04:42.717Z,992.99
2022-09-26T09:05:42.535Z,992.99
2022-09-26T09:06:42.516Z,993.03
2022-09-26T09:07:42.497Z,992.99
2022-09-26T09:08:42.498Z,993.00
2022-09-26T09:09:42.472Z,992.98
2022-09-26T09:10:42.685Z,992.92
2022-09-26T09:11:42.472Z,992.96
2022-09-26T09:12:42.446Z,992.87
2022-09-26T09:13:42.427Z,992.98
2022-09-26T09:14:42.419Z,992.94
2022-09-26T09:15:42.436Z,992.97
2022-09-26T09:16:42.467Z,992.97
2022-09-26T09:17:42.409Z,992.96
2022-09-26T09:18:42.380Z,992.90
2022-09-26T09:19:42.390Z,992.94
2022-09-26T09:20:42.375Z,992.90
2022-09-26T09:21:42.367Z,992.90
2022-09-26T09:22:42.356Z,992.84
2022-09-26T09:23:42.319Z,992.84
2022-09-26T09:24:42.310Z,992.81
2022-09-26T09:25:42.321Z,992.80
2022-09-26T09:28:03.964Z,992.79
2022-09-26T09:28:43.268Z,992.81
2022-09-26T09:29:42.254Z,992.84
2022-09-26T09:30:42.265Z,992.80
2022-09-26T09:31:42.292Z,992.79
2022-09-26T09:32:42.274Z,992.80
2022-09-26T09:33:42.227Z,992.78
2022-09-26T09:34:42.222Z,992.72
2022-09-26T09:35:42.188Z,992.75
2022-09-26T09:36:42.200Z,992.78
2022-09-26T09:37:42.181Z,992.78
2022-09-26T09:38:42.194Z,992.72
2022-09-26T09:39:42.150Z,992.70
2022-09-26T09:40:42.189Z,992.72
2022-09-26T09:41:42.121Z,992.77
2022-09-26T09:42:42.138Z,992.73
2022-09-26T09:43:42.163Z,992.75
2022-09-26T09:44:46.464Z,992.68
2022-09-26T09:45:43.103Z,992.67
2022-09-26T09:46:42.163Z,992.64
2022-09-26T09:47:42.077Z,992.65
2022-09-26T09:48:42.102Z,992.60
2022-09-26T09:49:42.067Z,992.66
2022-09-26T09:50:42.082Z,992.60
2022-09-26T09:51:42.046Z,992.60
2022-09-26T09:52:42.033Z,992.57
2022-09-26T09:53:42.011Z,992.55
2022-09-26T09:54:42.004Z,992.55
2022-09-26T09:55:41.974Z,992.55
2022-09-26T09:56:41.975Z,992.52
2022-09-26T09:57:41.981Z,992.50
2022-09-26T09:58:42.954Z,992.50
2022-09-26T09:59:41.971Z,992.50
2022-09-26T10:00:41.926Z,992.48
2022-09-26T10:01:41.938Z,992.50
2022-09-26T10:02:41.939Z,992.47
2022-09-26T10:03:41.966Z,992.38
2022-09-26T10:04:41.903Z,992.37
2022-09-26T10:05:41.909Z,992.33
2022-09-26T10:06:45.199Z,992.31
2022-09-26T10:07:41.849Z,992.30
2022-09-26T10:08:41.865Z,992.29
2022-09-26T10:09:41.848Z,992.31
2022-09-26T10:10:41.879Z,992.29
2022-09-26T10:11:41.819Z,992.31
2022-09-26T10:12:41.813Z,992.29
2022-09-26T10:13:41.817Z,992.25
2022-09-26T10:14:41.806Z,992.24
2022-09-26T10:15:41.829Z,992.21
2022-09-26T10:16:41.755Z,992.21
2022-09-26T10:17:41.766Z,992.18
2022-09-26T10:18:41.743Z,992.20
2022-09-26T10:19:41.759Z,992.21
2022-09-26T10:20:41.722Z,992.18
2022-09-26T10:21:41.720Z,992.13
2022-09-26T10:22:41.704Z,992.09
2022-09-26T10:23:41.700Z,992.11
2022-09-26T10:24:41.688Z,992.13
2022-09-26T10:25:41.669Z,992.07
2022-09-26T10:26:41.658Z,992.08
2022-09-26T10:27:41.677Z,992.13
2022-09-26T10:28:41.638Z,992.10
2022-09-26T10:29:41.698Z,992.09
2022-09-26T10:30:41.620Z,992.10
2022-09-26T10:31:43.053Z,992.02
2022-09-26T10:32:41.641Z,992.01
2022-09-26T10:33:41.639Z,992.00
2022-09-26T10:34:41.592Z,992.02
2022-09-26T10:35:41.565Z,991.92
2022-09-26T10:36:41.553Z,991.88
2022-09-26T10:37:41.563Z,991.84
2022-09-26T10:38:41.546Z,991.88
2022-09-26T10:39:41.590Z,991.79
2022-09-26T10:40:41.598Z,991.86
2022-09-26T10:41:41.509Z,991.86
2022-09-26T10:42:41.495Z,991.87
2022-09-26T10:43:41.490Z,991.87
2022-09-26T10:44:41.462Z,991.83
2022-09-26T10:45:41.512Z,991.84
2022-09-26T10:46:41.522Z,991.89
2022-09-26T10:47:41.466Z,991.90
2022-09-26T10:48:41.423Z,991.87
2022-09-26T10:49:41.439Z,991.89
2022-09-26T10:50:41.449Z,991.86
2022-09-26T10:51:41.435Z,991.84
2022-09-26T10:52:41.391Z,991.86
2022-09-26T10:53:41.428Z,991.81
2022-09-26T10:54:41.375Z,991.77
2022-09-26T10:55:41.392Z,991.82
2022-09-26T10:56:42.353Z,991.79
2022-09-26T10:57:41.348Z,991.78
2022-09-26T10:58:41.334Z,991.78
2022-09-26T10:59:41.315Z,991.74
2022-09-26T11:00:41.342Z,991.75
2022-09-26T11:01:41.338Z,991.71
2022-09-26T11:02:41.290Z,991.65
2022-09-26T11:03:41.353Z,991.70
2022-09-26T11:04:41.291Z,991.64
2022-09-26T11:05:41.244Z,991.61
2022-09-26T11:06:41.259Z,991.55
2022-09-26T11:07:41.263Z,991.70
2022-09-26T11:08:41.206Z,991.67
2022-09-26T11:09:41.205Z,991.60
2022-09-26T11:10:41.224Z,991.59
2022-09-26T11:11:41.227Z,991.58
2022-09-26T11:12:41.212Z,991.57
2022-09-26T11:13:41.183Z,991.62
2022-09-26T11:14:41.160Z,991.59
2022-09-26T11:15:41.191Z,991.58
2022-09-26T11:16:41.160Z,991.61
2022-09-26T11:17:41.123Z,991.60
2022-09-26T11:18:41.129Z,991.62
2022-09-26T11:19:41.097Z,991.63
2022-09-26T11:20:41.088Z,991.55
2022-09-26T11:21:41.087Z,991.52
2022-09-26T11:22:41.114Z,991.48
2022-09-26T11:23:41.086Z,991.50
2022-09-26T11:25:02.044Z,991.52
2022-09-26T11:25:41.027Z,991.50
2022-09-26T11:27:02.027Z,991.54
2022-09-26T11:31:11.245Z,991.42
2022-09-26T11:32:32.223Z,991.37
2022-09-26T11:33:11.221Z,991.38
2022-09-26T11:34:32.226Z,991.36
2022-09-26T11:35:32.171Z,991.38
2022-09-26T11:36:32.159Z,991.38
2022-09-26T11:38:21.163Z,991.29
2022-09-26T11:39:45.153Z,991.17
2022-09-26T11:40:21.192Z,991.18
2022-09-26T11:41:21.145Z,991.20
2022-09-26T11:42:21.141Z,991.24
2022-09-26T11:43:22.356Z,991.26
2022-09-26T11:44:21.105Z,991.20
2022-09-26T11:45:47.203Z,991.14
2022-09-26T11:46:22.102Z,991.17
2022-09-26T11:47:21.075Z,991.22
2022-09-26T11:48:22.283Z,991.13
2022-09-26T11:49:21.059Z,991.16
2022-09-26T11:50:43.048Z,991.11
2022-09-26T11:51:22.019Z,991.07
2022-09-26T11:52:28.433Z,991.10
2022-09-26T11:53:21.230Z,991.05
2022-09-26T11:54:21.994Z,991.08
2022-09-26T11:55:20.997Z,991.03
2022-09-26T11:56:21.197Z,991.07
2022-09-26T11:57:20.946Z,991.10
2022-09-26T11:58:23.978Z,991.10
2022-09-26T11:59:22.218Z,991.05
2022-09-26T12:00:20.970Z,991.01
2022-09-26T12:01:21.154Z,991.02
2022-09-26T12:02:20.996Z,990.99
2022-09-26T12:03:20.999Z,990.93
2022-09-26T12:04:21.041Z,990.97
2022-09-26T12:05:26.090Z,990.91
2022-09-26T12:06:22.109Z,990.90
2022-09-26T12:07:21.887Z,990.89
2022-09-26T12:08:23.881Z,990.87
2022-09-26T12:09:21.080Z,990.90
2022-09-26T12:10:21.076Z,990.85
2022-09-26T12:11:20.822Z,990.84
2022-09-26T12:12:23.830Z,990.81
2022-09-26T12:13:21.806Z,990.84
2022-09-26T12:14:21.800Z,990.82
2022-09-26T12:15:21.030Z,990.76
2022-09-26T12:16:20.887Z,990.75
2022-09-26T12:17:20.752Z,990.67
2022-09-26T12:18:21.769Z,990.65
2022-09-26T12:19:20.708Z,990.61
2022-09-26T12:20:20.734Z,990.62
2022-09-26T12:21:20.705Z,990.60
2022-09-26T12:22:20.684Z,990.66
2022-09-26T12:23:20.660Z,990.67
2022-09-26T12:24:20.665Z,990.64
2022-09-26T12:25:20.656Z,990.61
2022-09-26T12:26:20.641Z,990.58
2022-09-26T12:27:20.644Z,990.53
2022-09-26T12:28:20.884Z,990.52
2022-09-26T12:29:20.925Z,990.53
2022-09-26T12:30:20.600Z,990.50
2022-09-26T12:31:20.892Z,990.49
2022-09-26T12:32:20.790Z,990.47
2022-09-26T12:33:20.613Z,990.50
2022-09-26T12:34:20.616Z,990.41
2022-09-26T12:35:20.557Z,990.42
2022-09-26T12:36:20.788Z,990.37